Almont, Michigan
Current Conditions -  °F | °C
As of 11:14 PM on Wednesday 26 Nov 2014 (Local Time) from KD95 Reporting Station
Overcast Overcast  
Wind Chill: 29°   Ceiling: 4500
Heat Index: 29°   Visibility: 10mi
Dew Point: 25°   Wind: 3mph
Humidity: 84%   Direction: 340°NNW
Pressure: 30.09"   Gusts: NA
Location:  42.92°N, 83.04°W
Report Text: KD95 270414Z AUTO 34003KT 10SM OVC045 M02/M04 A3009 RMK AO2 T10171040
Loading
Personal Weather Stations






























Interactive Weather Map New forecast layout! Learn more

10-Day Weather Forecast

Advertisements
Track Severe Weather on mobile